Time;durP1;ratioP1;P1;durP2;ratioP2;P2;SDS_P1;SDS_P2;PMS_P1;PMS_P2;Temp;Humidity;BMP_temperature;BMP_pressure;BME280_temperature;BME280_humidity;BME280_pressure;Samples;Min_cycle;Max_cycle;Signal;HPM_P1;HPM_P2
2023/09/12 00:00:49;;;;;;;14.03;10.27;;;21.40;99.90;;;;;;5098454;28;20551;-59
2023/09/12 00:03:20;;;;;;;12.73;11.50;;;21.30;1.00;;;;;;5098049;28;20456;-59
2023/09/12 00:05:52;;;;;;;11.40;10.40;;;21.20;1.00;;;;;;5098402;28;20509;-59
2023/09/12 00:08:19;;;;;;;11.93;11.00;;;21.10;1.00;;;;;;5098486;28;20543;-58
2023/09/12 00:10:47;;;;;;;11.73;10.60;;;21.10;1.00;;;;;;5098730;28;20543;-59
2023/09/12 00:13:14;;;;;;;11.43;10.23;;;21.10;99.90;;;;;;5098253;28;20476;-59
2023/09/12 00:15:41;;;;;;;11.00;10.10;;;21.10;99.90;;;;;;5097944;28;20491;-59
2023/09/12 00:18:08;;;;;;;12.97;11.77;;;21.00;1.00;;;;;;5098015;28;20434;-59
2023/09/12 00:20:37;;;;;;;11.00;9.93;;;21.00;99.90;;;;;;5098263;28;20790;-59
2023/09/12 00:23:05;;;;;;;11.53;10.53;;;21.00;1.00;;;;;;5097634;28;20495;-58
2023/09/12 00:25:32;;;;;;;11.83;10.73;;;20.90;99.90;;;;;;5097684;28;20467;-58
2023/09/12 00:27:59;;;;;;;11.37;9.87;;;20.90;99.90;;;;;;5097144;28;20462;-58
2023/09/12 00:30:26;;;;;;;11.90;9.90;;;20.90;99.90;;;;;;5098007;28;20555;-58
2023/09/12 00:32:53;;;;;;;11.63;10.63;;;20.80;1.00;;;;;;5098114;28;20935;-59
2023/09/12 00:35:20;;;;;;;12.13;10.93;;;20.70;99.90;;;;;;5097407;28;20464;-59
2023/09/12 00:37:49;;;;;;;11.17;10.17;;;20.60;1.00;;;;;;5097838;28;20500;-59
2023/09/12 00:40:16;;;;;;;10.70;9.80;;;20.50;99.90;;;;;;5097100;28;20553;-59
2023/09/12 00:42:43;;;;;;;12.03;10.40;;;20.40;53.90;;;;;;5097810;28;20757;-59
2023/09/12 00:45:11;;;;;;;11.73;10.53;;;20.50;99.90;;;;;;5097224;28;20457;-59
2023/09/12 00:47:38;;;;;;;11.53;10.33;;;20.40;6.30;;;;;;5097872;28;20462;-59
2023/09/12 00:50:07;;;;;;;10.50;8.87;;;20.40;1.00;;;;;;5097632;28;20548;-59
2023/09/12 00:52:35;;;;;;;9.60;8.80;;;20.30;1.00;;;;;;5097580;28;20430;-58
2023/09/12 00:55:05;;;;;;;9.73;7.90;;;20.20;99.90;;;;;;5097309;28;20498;-58
2023/09/12 00:57:35;;;;;;;8.47;7.67;;;20.10;1.00;;;;;;5097472;28;20757;-58
2023/09/12 01:00:10;;;;;;;10.57;7.50;;;20.00;1.00;;;;;;5097243;28;20583;-59
2023/09/12 01:02:38;;;;;;;8.73;7.80;;;20.00;99.90;;;;;;5097424;28;20529;-58
2023/09/12 01:05:07;;;;;;;7.07;6.03;;;19.90;99.90;;;;;;5097022;28;20456;-58
2023/09/12 01:07:35;;;;;;;6.87;6.27;;;19.80;1.00;;;;;;5097142;28;20457;-59
2023/09/12 01:10:02;;;;;;;11.50;6.27;;;19.80;1.00;;;;;;5097153;28;20456;-58
2023/09/12 01:12:31;;;;;;;7.20;6.40;;;19.70;1.00;;;;;;5097635;28;20483;-58
2023/09/12 01:14:58;;;;;;;7.37;6.00;;;19.80;99.90;;;;;;5097380;28;20456;-58
2023/09/12 01:17:26;;;;;;;6.57;6.00;;;19.90;99.90;;;;;;5097113;28;20499;-59
2023/09/12 01:19:53;;;;;;;6.60;6.00;;;19.90;99.90;;;;;;5097374;28;20530;-58
2023/09/12 01:22:38;;;;;;;6.47;5.87;;;19.80;1.00;;;;;;5097330;28;20750;-59
2023/09/12 01:25:41;;;;;;;6.20;5.27;;;19.90;99.90;;;;;;5097278;28;20463;-59
2023/09/12 01:28:11;;;;;;;5.60;5.10;;;19.90;99.90;;;;;;5086897;28;20910;-59
2023/09/12 01:30:42;;;;;;;6.90;5.67;;;20.00;17.10;;;;;;5097426;28;20547;-58
2023/09/12 01:33:10;;;;;;;6.60;6.00;;;20.00;1.00;;;;;;5096906;28;20452;-58
2023/09/12 01:35:37;;;;;;;6.07;5.50;;;20.00;99.90;;;;;;5096850;28;20452;-58
2023/09/12 01:38:04;;;;;;;6.40;5.80;;;20.00;99.90;;;;;;5097348;28;20748;-58
2023/09/12 01:40:39;;;;;;;7.47;6.77;;;20.00;13.20;;;;;;5100214;28;20496;-58
2023/09/12 01:43:09;;;;;;;7.50;6.13;;;19.80;99.90;;;;;;5100248;28;20447;-59
2023/09/12 01:45:37;;;;;;;6.70;6.10;;;19.90;99.90;;;;;;5101116;28;20881;-59
2023/09/12 01:48:06;;;;;;;6.70;6.00;;;19.90;1.00;;;;;;5101182;28;20555;-59
2023/09/12 01:50:34;;;;;;;7.60;5.90;;;19.90;1.00;;;;;;5101118;28;20471;-59
2023/09/12 01:53:02;;;;;;;7.97;6.20;;;20.00;99.90;;;;;;5101363;28;20753;-59
2023/09/12 01:55:30;;;;;;;6.10;5.60;;;20.00;99.90;;;;;;5100603;28;20580;-59
2023/09/12 01:57:57;;;;;;;7.40;6.80;;;20.00;99.90;;;;;;5100612;28;20499;-58
2023/09/12 02:00:26;;;;;;;6.80;6.10;;;20.10;99.90;;;;;;5100735;28;20492;-58
2023/09/12 02:02:54;;;;;;;7.73;6.30;;;20.10;99.90;;;;;;5100770;28;20462;-58
2023/09/12 02:05:23;;;;;;;6.50;5.90;;;20.10;1.00;;;;;;5100689;28;20460;-58
2023/09/12 02:07:50;;;;;;;7.07;6.17;;;20.10;1.00;;;;;;5100695;28;20546;-58
2023/09/12 02:10:18;;;;;;;6.77;6.10;;;20.20;99.90;;;;;;5100665;28;20463;-59
2023/09/12 02:12:45;;;;;;;7.30;6.60;;;20.10;99.90;;;;;;5100142;28;20460;-58
2023/09/12 02:15:13;;;;;;;8.37;7.10;;;20.10;1.00;;;;;;5100281;28;20880;-58
2023/09/12 02:17:41;;;;;;;8.40;7.50;;;20.10;99.90;;;;;;5100449;28;20460;-58
2023/09/12 02:20:10;;;;;;;9.83;8.60;;;20.10;1.00;;;;;;5100310;28;20488;-58
2023/09/12 02:22:38;;;;;;;10.33;8.33;;;20.00;99.90;;;;;;5100586;28;20893;-58
2023/09/12 02:25:06;;;;;;;9.60;8.67;;;20.00;1.00;;;;;;5100409;28;20453;-59
2023/09/12 02:27:33;;;;;;;10.00;9.07;;;20.00;1.00;;;;;;5099971;28;20461;-58
2023/09/12 02:30:00;;;;;;;11.00;9.80;;;20.10;1.00;;;;;;5100212;28;20885;-58
2023/09/12 02:32:27;;;;;;;9.13;8.23;;;20.10;4.70;;;;;;5100254;28;20488;-58
2023/09/12 02:34:57;;;;;;;9.77;8.87;;;20.10;99.90;;;;;;5100227;28;20538;-58
2023/09/12 02:37:24;;;;;;;11.60;10.23;;;20.10;1.00;;;;;;5099620;28;20460;-58
2023/09/12 02:39:51;;;;;;;9.97;8.90;;;20.10;1.00;;;;;;5099711;28;20500;-58
2023/09/12 02:42:18;;;;;;;10.87;9.87;;;20.10;1.00;;;;;;5099674;28;20431;-58
2023/09/12 02:44:45;;;;;;;12.03;10.70;;;20.00;1.00;;;;;;5099349;28;20463;-56
2023/09/12 02:47:12;;;;;;;11.63;10.63;;;20.00;1.00;;;;;;5098613;28;20463;-59
2023/09/12 02:49:39;;;;;;;12.07;10.83;;;20.00;1.00;;;;;;5098642;28;20458;-58
2023/09/12 02:52:08;;;;;;;12.47;11.17;;;19.90;1.00;;;;;;5098544;28;20478;-59
2023/09/12 02:54:35;;;;;;;12.20;11.10;;;20.00;1.00;;;;;;5099821;28;20753;-58
2023/09/12 02:57:02;;;;;;;12.13;10.93;;;20.00;1.00;;;;;;5099292;28;20463;-59
2023/09/12 02:59:31;;;;;;;12.87;11.67;;;20.00;1.00;;;;;;5099430;28;20880;-58
2023/09/12 03:01:58;;;;;;;15.33;12.37;;;19.80;1.00;;;;;;5099719;28;20492;-59
2023/09/12 03:04:27;;;;;;;13.73;12.43;;;19.70;1.00;;;;;;5099842;28;20464;-57
2023/09/12 03:06:54;;;;;;;13.50;12.07;;;19.60;1.00;;;;;;5098709;28;20484;-57
2023/09/12 03:09:24;;;;;;;15.53;14.03;;;19.70;1.00;;;;;;5097622;28;20567;-58
2023/09/12 03:11:51;;;;;;;15.83;14.00;;;19.60;1.00;;;;;;5097947;28;20776;-57
2023/09/12 03:14:18;;;;;;;16.07;14.37;;;19.60;1.00;;;;;;5097789;28;20459;-58
2023/09/12 03:16:45;;;;;;;16.60;13.73;;;19.60;1.00;;;;;;5096898;28;20452;-58
2023/09/12 03:19:13;;;;;;;15.83;14.13;;;19.60;1.00;;;;;;5096593;28;20462;-59
2023/09/12 03:21:40;;;;;;;17.20;14.70;;;19.60;1.00;;;;;;5096386;28;20531;-59
2023/09/12 03:24:07;;;;;;;15.23;13.90;;;19.30;28.80;;;;;;5097567;28;20555;-59
2023/09/12 03:26:37;;;;;;;17.27;15.57;;;19.30;54.40;;;;;;5097699;28;20457;-57
2023/09/12 03:29:04;;;;;;;16.57;14.87;;;19.40;92.50;;;;;;5097220;28;20460;-57
2023/09/12 03:31:31;;;;;;;22.40;18.07;;;19.50;73.80;;;;;;5096942;28;20801;-57
2023/09/12 03:33:58;;;;;;;19.30;17.40;;;19.50;62.00;;;;;;5097387;28;20754;-57
2023/09/12 03:36:26;;;;;;;18.70;16.80;;;19.50;81.80;;;;;;5108979;28;20472;-59
2023/09/12 03:38:53;;;;;;;19.07;16.50;;;19.50;63.30;;;;;;5117727;28;20783;-58
2023/09/12 03:41:22;;;;;;;16.63;14.70;;;19.50;38.40;;;;;;5115436;28;20472;-58
2023/09/12 03:43:50;;;;;;;18.10;14.43;;;19.50;21.40;;;;;;5117600;28;20459;-58
2023/09/12 03:46:17;;;;;;;17.00;15.20;;;19.50;1.00;;;;;;5117609;28;20463;-56
2023/09/12 03:48:45;;;;;;;16.93;15.13;;;19.50;1.00;;;;;;5118535;28;20516;-59
2023/09/12 03:51:13;;;;;;;15.30;13.77;;;19.50;1.00;;;;;;5118951;28;20455;-59
2023/09/12 03:53:40;;;;;;;16.57;12.70;;;19.50;1.00;;;;;;5119134;28;20879;-59
2023/09/12 03:56:10;;;;;;;12.70;11.43;;;19.50;1.00;;;;;;5119563;28;20459;-59
2023/09/12 03:58:37;;;;;;;14.73;13.23;;;19.50;1.00;;;;;;5119326;28;20462;-59
2023/09/12 04:01:05;;;;;;;15.43;14.03;;;19.50;1.00;;;;;;5118647;28;20973;-59
2023/09/12 04:03:32;;;;;;;17.27;15.23;;;19.50;1.00;;;;;;5118882;28;20859;-59
2023/09/12 04:05:59;;;;;;;17.43;15.70;;;19.50;1.00;;;;;;5118134;28;20451;-58
2023/09/12 04:08:26;;;;;;;17.60;15.20;;;19.50;1.00;;;;;;5118683;28;20459;-59
2023/09/12 04:10:54;;;;;;;16.07;14.47;;;19.60;1.00;;;;;;5118825;28;20546;-59
2023/09/12 04:13:21;;;;;;;19.70;15.93;;;19.50;1.00;;;;;;5118803;28;20491;-59
2023/09/12 04:15:48;;;;;;;17.43;15.60;;;19.50;1.00;;;;;;5115949;28;20591;-59
2023/09/12 04:18:17;;;;;;;23.90;15.80;;;19.50;1.00;;;;;;5119054;28;20459;-59
2023/09/12 04:20:44;;;;;;;15.83;14.20;;;19.40;1.00;;;;;;5117144;28;20484;-59
2023/09/12 04:23:11;;;;;;;15.27;13.77;;;19.40;1.00;;;;;;5118605;28;20459;-59
2023/09/12 04:25:38;;;;;;;21.40;14.63;;;19.40;1.00;;;;;;5118866;28;20455;-59
2023/09/12 04:28:06;;;;;;;16.83;14.03;;;19.30;1.00;;;;;;5118869;28;20517;-58
2023/09/12 04:30:35;;;;;;;16.10;14.40;;;19.30;1.00;;;;;;5117817;28;20771;-58
2023/09/12 04:33:02;;;;;;;13.83;12.03;;;19.30;1.00;;;;;;5118497;28;20922;-59
2023/09/12 04:35:41;;;;;;;15.60;13.33;;;19.30;1.00;;;;;;5115105;28;20889;-58
2023/09/12 04:38:08;;;;;;;14.60;12.20;;;19.30;1.00;;;;;;5116605;28;20565;-59
2023/09/12 04:40:35;;;;;;;14.07;11.80;;;19.30;1.00;;;;;;5100491;28;20803;-59
2023/09/12 04:43:04;;;;;;;15.13;13.30;;;19.30;1.00;;;;;;5097818;28;20865;-59
2023/09/12 04:45:33;;;;;;;14.27;12.33;;;19.40;1.00;;;;;;5096934;28;20456;-59
2023/09/12 04:48:00;;;;;;;12.70;11.40;;;19.30;1.00;;;;;;5097516;28;20453;-58
2023/09/12 04:50:28;;;;;;;13.37;12.17;;;19.40;1.00;;;;;;5097632;28;20449;-58
2023/09/12 04:52:56;;;;;;;12.70;11.40;;;19.40;1.00;;;;;;5096948;28;20765;-57
2023/09/12 04:55:23;;;;;;;13.50;11.00;;;19.40;1.00;;;;;;5097051;28;20456;-59
2023/09/12 04:57:50;;;;;;;20.30;11.83;;;19.40;1.00;;;;;;5097769;28;20463;-59
2023/09/12 05:00:18;;;;;;;15.30;10.77;;;19.40;1.00;;;;;;5097201;28;20488;-59
2023/09/12 05:02:45;;;;;;;14.73;10.63;;;19.40;1.00;;;;;;5097446;28;20479;-58
2023/09/12 05:05:12;;;;;;;11.37;10.20;;;19.50;1.00;;;;;;5095726;28;20765;-59
2023/09/12 05:07:39;;;;;;;12.50;10.90;;;19.50;1.00;;;;;;5105344;28;20451;-59
2023/09/12 05:10:08;;;;;;;12.07;10.83;;;19.50;1.00;;;;;;5091357;28;20795;-59
2023/09/12 05:12:36;;;;;;;12.57;11.13;;;19.50;1.00;;;;;;5095202;28;20507;-59
2023/09/12 05:15:03;;;;;;;12.67;11.37;;;19.50;1.00;;;;;;5099634;28;20821;-59
2023/09/12 05:17:30;;;;;;;12.80;11.53;;;19.40;1.00;;;;;;5113792;28;20459;-59
2023/09/12 05:19:57;;;;;;;11.47;10.37;;;19.40;1.00;;;;;;5113696;28;20881;-59
2023/09/12 05:22:25;;;;;;;12.63;11.33;;;19.50;1.00;;;;;;5096348;28;20567;-59
2023/09/12 05:24:52;;;;;;;11.47;10.37;;;19.50;1.00;;;;;;5089117;28;20465;-58
2023/09/12 05:27:20;;;;;;;12.43;11.23;;;19.50;1.00;;;;;;5100778;28;20767;-59
2023/09/12 05:29:48;;;;;;;11.07;10.07;;;19.60;1.00;;;;;;5098278;28;20571;-59
2023/09/12 05:32:16;;;;;;;12.97;11.00;;;19.50;1.00;;;;;;5090399;28;20490;-58
2023/09/12 05:34:45;;;;;;;15.30;12.33;;;19.50;1.00;;;;;;5095828;28;20468;-55
2023/09/12 05:37:12;;;;;;;14.07;12.70;;;19.40;24.90;;;;;;5104217;28;20478;-60
2023/09/12 05:39:39;;;;;;;14.87;13.23;;;19.40;82.60;;;;;;5115550;28;20487;-60
2023/09/12 05:42:06;;;;;;;15.03;13.40;;;19.50;96.00;;;;;;5117414;28;20487;-60
2023/09/12 05:44:35;;;;;;;16.23;14.30;;;19.50;72.30;;;;;;5116821;28;20456;-61
2023/09/12 05:47:02;;;;;;;14.80;12.40;;;19.50;57.00;;;;;;5117357;28;20911;-61
2023/09/12 05:49:29;;;;;;;19.17;12.40;;;19.50;37.80;;;;;;5117343;28;20460;-60
2023/09/12 05:51:56;;;;;;;18.83;12.20;;;19.50;26.10;;;;;;5117390;28;20474;-61
2023/09/12 05:54:24;;;;;;;13.60;12.30;;;19.60;51.70;;;;;;5117124;28;20884;-62
2023/09/12 05:56:51;;;;;;;12.50;11.20;;;19.60;45.30;;;;;;5116955;28;20462;-62
2023/09/12 05:59:18;;;;;;;12.87;11.40;;;19.70;25.30;;;;;;5117569;28;20462;-61
2023/09/12 06:01:46;;;;;;;12.03;10.83;;;19.70;1.00;;;;;;5116594;28;20491;-61
2023/09/12 06:04:13;;;;;;;13.40;11.00;;;19.70;1.00;;;;;;5117275;28;20452;-61
2023/09/12 06:06:41;;;;;;;12.10;10.90;;;19.60;1.00;;;;;;5117339;28;20550;-62
2023/09/12 06:09:09;;;;;;;13.17;9.90;;;19.60;79.00;;;;;;5115900;28;20455;-62
2023/09/12 06:11:37;;;;;;;12.27;11.07;;;19.60;99.90;;;;;;5116761;28;20896;-62
2023/09/12 06:14:04;;;;;;;13.43;12.23;;;19.70;99.90;;;;;;5115583;28;20533;-62
2023/09/12 06:16:31;;;;;;;14.03;12.63;;;19.60;99.90;;;;;;5115722;28;20455;-62
2023/09/12 06:18:59;;;;;;;13.07;11.67;;;19.60;99.90;;;;;;5115196;28;20554;-61
2023/09/12 06:21:27;;;;;;;14.30;12.43;;;19.60;99.90;;;;;;5115515;28;20487;-61
2023/09/12 06:24:10;;;;;;;14.23;12.80;;;19.70;99.90;;;;;;5114695;28;20459;-61
2023/09/12 06:26:38;;;;;;;13.80;12.30;;;19.70;57.10;;;;;;5098064;28;20459;-62
2023/09/12 06:29:07;;;;;;;13.57;12.27;;;19.80;50.60;;;;;;5098891;28;20460;-62
2023/09/12 06:31:35;;;;;;;12.67;11.47;;;19.80;1.00;;;;;;5098327;28;20629;-63
2023/09/12 06:34:04;;;;;;;12.43;11.23;;;19.90;31.80;;;;;;5098135;28;20439;-62
2023/09/12 06:36:31;;;;;;;13.70;11.80;;;20.00;1.00;;;;;;5097430;28;20550;-62
2023/09/12 06:38:58;;;;;;;13.43;11.20;;;20.00;1.00;;;;;;5097285;28;20742;-62
2023/09/12 06:41:26;;;;;;;12.33;11.00;;;20.10;1.00;;;;;;5097616;28;20489;-62
2023/09/12 06:43:55;;;;;;;11.77;10.67;;;20.20;1.00;;;;;;5098073;28;20738;-61
2023/09/12 06:46:22;;;;;;;12.87;11.53;;;20.10;1.00;;;;;;5099206;28;20465;-62
2023/09/12 06:48:50;;;;;;;11.90;10.77;;;20.10;1.00;;;;;;5099172;28;20952;-62
2023/09/12 06:51:19;;;;;;;12.33;11.17;;;20.10;1.00;;;;;;5099292;28;20484;-62
2023/09/12 06:53:46;;;;;;;11.30;10.30;;;20.10;1.00;;;;;;5099696;28;20460;-62
2023/09/12 06:56:13;;;;;;;12.00;9.77;;;20.10;1.00;;;;;;5100051;28;20551;-62
2023/09/12 06:58:40;;;;;;;12.00;10.80;;;20.10;1.00;;;;;;5099941;28;20535;-61
2023/09/12 07:01:08;;;;;;;10.77;9.77;;;20.30;1.00;;;;;;5099272;28;20575;-61
2023/09/12 07:03:36;;;;;;;10.50;9.50;;;20.50;1.00;;;;;;5097755;28;20546;-61
2023/09/12 07:06:05;;;;;;;10.57;9.53;;;20.70;1.00;;;;;;5098613;28;20463;-61
2023/09/12 07:08:34;;;;;;;7.77;7.17;;;20.80;99.90;;;;;;5098934;28;20484;-62
2023/09/12 07:11:05;;;;;;;9.07;8.00;;;20.90;99.90;;;;;;5098663;28;20499;-61
2023/09/12 07:13:33;;;;;;;9.63;8.80;;;20.90;99.90;;;;;;5098564;28;20483;-62
2023/09/12 07:16:03;;;;;;;9.27;7.57;;;21.00;99.90;;;;;;5098294;28;20546;-61
2023/09/12 07:18:32;;;;;;;8.63;7.77;;;21.00;99.90;;;;;;5116943;28;20848;-62
2023/09/12 07:21:00;;;;;;;7.60;7.00;;;21.20;99.90;;;;;;5119774;28;20726;-61
2023/09/12 07:23:27;;;;;;;9.03;8.13;;;21.50;99.90;;;;;;5116954;28;20458;-61
2023/09/12 07:25:57;;;;;;;8.90;7.50;;;21.70;99.90;;;;;;5117723;28;20484;-61
2023/09/12 07:28:24;;;;;;;8.10;7.37;;;21.80;99.90;;;;;;5117312;28;20794;-60
2023/09/12 07:30:52;;;;;;;8.03;7.23;;;22.20;99.90;;;;;;5116773;28;20459;-61
2023/09/12 07:33:19;;;;;;;8.00;7.30;;;22.50;99.90;;;;;;5116272;28;20456;-60
2023/09/12 07:35:46;;;;;;;7.87;7.17;;;22.70;99.90;;;;;;5117513;28;20455;-60
2023/09/12 07:38:15;;;;;;;7.87;7.07;;;22.80;36.20;;;;;;5118564;28;20459;-59
2023/09/12 07:40:42;;;;;;;7.70;6.20;;;23.00;54.30;;;;;;5118976;28;20554;-59
2023/09/12 07:43:11;;;;;;;8.07;7.30;;;23.10;1.00;;;;;;5118752;28;20491;-59
2023/09/12 07:45:38;;;;;;;7.20;6.47;;;23.30;3.10;;;;;;5119503;28;20466;-59
2023/09/12 07:48:07;;;;;;;7.60;6.90;;;23.10;1.00;;;;;;5119608;28;20737;-59
2023/09/12 07:50:34;;;;;;;7.63;6.73;;;23.10;1.00;;;;;;5119202;28;20505;-59
2023/09/12 07:53:01;;;;;;;7.47;6.77;;;22.80;1.00;;;;;;5119117;28;20454;-58
2023/09/12 07:55:33;;;;;;;8.77;6.70;;;22.90;1.00;;;;;;5118731;28;20459;-59
2023/09/12 07:58:00;;;;;;;9.07;6.37;;;22.80;1.00;;;;;;5119314;28;20469;-59
2023/09/12 08:00:29;;;;;;;7.77;7.07;;;22.90;1.00;;;;;;5118969;28;20487;-59
2023/09/12 08:02:56;;;;;;;6.73;6.03;;;22.90;1.00;;;;;;5119239;28;20624;-58
2023/09/12 08:05:23;;;;;;;7.83;7.07;;;23.00;1.00;;;;;;5118447;28;20460;-59
2023/09/12 08:07:50;;;;;;;7.80;7.03;;;23.10;1.00;;;;;;5118924;28;20456;-59
2023/09/12 08:10:18;;;;;;;7.40;6.80;;;23.20;1.00;;;;;;5119079;28;20827;-59
2023/09/12 08:12:45;;;;;;;11.17;7.60;;;23.30;1.00;;;;;;5118809;28;20458;-59
2023/09/12 08:15:12;;;;;;;8.70;7.60;;;23.30;1.00;;;;;;5118518;28;20512;-58
2023/09/12 08:17:41;;;;;;;7.87;6.77;;;23.10;1.00;;;;;;5119073;28;20461;-59
2023/09/12 08:20:10;;;;;;;8.27;7.47;;;23.30;1.00;;;;;;5118598;28;20906;-59
2023/09/12 08:22:37;;;;;;;8.47;6.87;;;23.40;1.00;;;;;;5119015;28;20826;-59
2023/09/12 08:25:05;;;;;;;8.17;7.37;;;23.40;1.00;;;;;;5117794;28;20462;-59
2023/09/12 08:27:32;;;;;;;9.50;7.97;;;23.40;1.00;;;;;;5118089;28;20466;-59
2023/09/12 08:30:00;;;;;;;8.97;8.17;;;23.20;1.00;;;;;;5118602;28;20513;-58
2023/09/12 08:32:29;;;;;;;9.83;7.77;;;23.10;1.00;;;;;;5118333;28;20456;-58
2023/09/12 08:34:58;;;;;;;9.07;7.67;;;23.20;1.00;;;;;;5118379;28;20456;-58
2023/09/12 08:37:26;;;;;;;8.17;7.33;;;23.30;1.00;;;;;;5118124;28;20872;-59
2023/09/12 08:39:56;;;;;;;8.07;7.47;;;23.40;1.00;;;;;;5118205;28;20484;-59
2023/09/12 08:42:24;;;;;;;6.63;6.03;;;23.60;1.00;;;;;;5118046;28;20498;-58
2023/09/12 08:44:51;;;;;;;8.40;7.50;;;24.00;1.00;;;;;;5118484;28;20876;-58
2023/09/12 08:47:23;;;;;;;7.27;6.43;;;24.40;99.90;;;;;;5118312;28;20546;-57
2023/09/12 08:49:50;;;;;;;7.10;6.50;;;24.80;99.90;;;;;;5117113;28;20949;-58
2023/09/12 08:52:19;;;;;;;7.57;6.73;;;24.90;99.90;;;;;;5117686;28;20458;-58
2023/09/12 08:54:46;;;;;;;7.70;6.73;;;25.30;99.90;;;;;;5118087;28;20455;-59
2023/09/12 08:57:14;;;;;;;6.53;5.80;;;25.60;1.00;;;;;;5117757;28;20459;-58
2023/09/12 08:59:44;;;;;;;6.90;6.30;;;25.70;1.00;;;;;;5117617;28;20478;-59
2023/09/12 09:02:12;;;;;;;8.30;5.87;;;25.90;1.00;;;;;;5117998;28;20578;-59
2023/09/12 09:04:41;;;;;;;6.73;5.70;;;26.10;1.00;;;;;;5117822;28;20488;-59
2023/09/12 09:07:10;;;;;;;6.20;5.60;;;25.80;1.00;;;;;;5117936;28;20876;-59
2023/09/12 09:09:39;;;;;;;8.13;5.80;;;25.80;1.00;;;;;;5117599;28;20464;-59
2023/09/12 09:12:08;;;;;;;5.97;5.57;;;25.30;1.00;;;;;;5117642;28;20558;-59
2023/09/12 09:14:36;;;;;;;6.90;6.10;;;25.00;1.00;;;;;;5117857;28;20892;-59
2023/09/12 09:17:03;;;;;;;7.37;6.60;;;24.70;8.80;;;;;;5106927;28;20460;-60
2023/09/12 09:19:42;;;;;;;7.23;6.23;;;24.50;49.80;;;;;;5096036;28;20550;-59
2023/09/12 09:22:10;;;;;;;8.20;7.40;;;24.60;99.90;;;;;;5094563;28;20553;-58
2023/09/12 09:24:38;;;;;;;6.57;5.83;;;25.00;99.90;;;;;;5095677;28;20456;-59
2023/09/12 09:27:05;;;;;;;7.20;6.60;;;25.10;99.90;;;;;;5094616;28;20548;-60
2023/09/12 09:29:33;;;;;;;5.87;5.37;;;24.80;66.40;;;;;;5093206;28;20463;-59
2023/09/12 09:32:02;;;;;;;6.30;5.70;;;25.00;99.90;;;;;;5094432;28;20465;-60
2023/09/12 09:34:31;;;;;;;6.90;5.17;;;25.40;14.10;;;;;;5095195;28;20453;-59
2023/09/12 09:37:03;;;;;;;6.90;6.30;;;25.30;1.00;;;;;;5095904;28;20857;-59
2023/09/12 09:39:31;;;;;;;6.50;5.90;;;25.10;1.00;;;;;;5095490;28;20905;-59
2023/09/12 09:41:59;;;;;;;6.10;5.50;;;25.60;55.70;;;;;;5095434;28;21002;-59
2023/09/12 09:44:30;;;;;;;6.53;6.03;;;26.20;1.00;;;;;;5095957;28;20511;-58
2023/09/12 09:47:02;;;;;;;5.97;5.47;;;26.80;1.00;;;;;;5096613;28;20460;-58
2023/09/12 09:49:33;;;;;;;11.40;6.70;;;27.30;1.00;;;;;;5092780;28;20731;-59
2023/09/12 09:52:04;;;;;;;7.27;6.60;;;26.90;99.90;;;;;;5094938;28;21003;-59
2023/09/12 09:54:31;;;;;;;6.63;5.97;;;26.70;99.90;;;;;;5094784;28;20889;-59
2023/09/12 09:56:59;;;;;;;6.10;5.60;;;26.40;99.90;;;;;;5094612;28;20460;-59
2023/09/12 09:59:28;;;;;;;6.70;6.20;;;26.20;1.00;;;;;;5094231;28;20563;-59
2023/09/12 10:01:58;;;;;;;6.60;6.00;;;26.50;99.90;;;;;;5098325;28;20488;-59
2023/09/12 10:04:27;;;;;;;6.93;6.00;;;26.20;99.90;;;;;;5098801;28;20452;-60
2023/09/12 10:06:58;;;;;;;6.67;6.00;;;26.40;99.90;;;;;;5098210;28;20757;-59
2023/09/12 10:09:28;;;;;;;7.70;6.20;;;25.50;1.00;;;;;;5098284;28;20475;-59
2023/09/12 10:11:58;;;;;;;6.40;5.90;;;26.50;1.00;;;;;;5099263;28;20491;-60
2023/09/12 10:14:29;;;;;;;7.20;6.60;;;26.90;99.90;;;;;;5094039;28;20564;-60
2023/09/12 10:17:02;;;;;;;6.20;5.60;;;26.70;99.90;;;;;;5094549;28;20472;-59
2023/09/12 10:19:37;;;;;;;6.10;5.60;;;26.50;99.90;;;;;;5098723;28;20456;-59
2023/09/12 10:22:10;;;;;;;6.43;5.90;;;27.20;99.90;;;;;;5100372;28;20498;-59
2023/09/12 10:24:38;;;;;;;6.37;5.77;;;27.60;99.90;;;;;;5097196;28;20464;-59
2023/09/12 10:27:07;;;;;;;5.63;5.13;;;27.60;91.40;;;;;;5098694;28;20479;-60
2023/09/12 10:29:36;;;;;;;6.30;5.80;;;27.70;99.90;;;;;;5098681;28;20550;-59
2023/09/12 10:32:04;;;;;;;5.30;4.80;;;28.00;44.60;;;;;;5098757;28;20546;-60
2023/09/12 10:34:33;;;;;;;5.53;5.10;;;28.30;1.00;;;;;;5098439;28;20517;-59
2023/09/12 10:37:04;;;;;;;5.03;4.63;;;28.60;1.00;;;;;;5098830;28;20452;-59
2023/09/12 10:39:33;;;;;;;5.90;5.43;;;28.40;1.00;;;;;;5107553;28;20491;-60
2023/09/12 10:42:04;;;;;;;6.13;5.63;;;28.70;1.00;;;;;;5118358;28;20520;-59
2023/09/12 10:44:33;;;;;;;5.67;5.13;;;28.90;1.00;;;;;;5119848;28;20456;-58
2023/09/12 10:47:03;;;;;;;8.17;5.90;;;28.90;1.00;;;;;;5119395;28;20458;-58
2023/09/12 10:49:31;;;;;;;6.40;5.80;;;28.80;1.00;;;;;;5119171;28;20930;-59
2023/09/12 10:51:59;;;;;;;5.73;5.23;;;28.50;1.00;;;;;;5119401;28;20756;-58
2023/09/12 10:54:36;;;;;;;7.10;5.27;;;28.50;1.00;;;;;;5119070;28;20951;-60
2023/09/12 10:57:04;;;;;;;5.53;5.13;;;28.40;1.00;;;;;;5115954;28;20557;-59
2023/09/12 10:59:35;;;;;;;5.83;5.37;;;28.70;1.00;;;;;;5119474;28;20459;-59
2023/09/12 11:02:31;;;;;;;5.90;5.40;;;27.70;1.00;;;;;;5119836;28;20460;-59
2023/09/12 11:04:59;;;;;;;6.20;5.73;;;28.10;1.00;;;;;;5119994;28;20907;-59
2023/09/12 11:07:46;;;;;;;5.53;5.00;;;28.80;1.00;;;;;;5119354;28;20482;-59
2023/09/12 11:10:21;;;;;;;6.87;6.37;;;29.40;1.00;;;;;;5119323;28;20517;-59
2023/09/12 11:12:50;;;;;;;5.97;5.43;;;29.40;99.90;;;;;;5116994;28;20486;-59
2023/09/12 11:15:17;;;;;;;6.03;5.53;;;28.70;99.90;;;;;;5117620;28;20554;-59
2023/09/12 11:17:47;;;;;;;7.17;6.57;;;28.30;99.90;;;;;;5117646;28;20540;-59
2023/09/12 11:20:16;;;;;;;6.87;6.27;;;28.20;99.90;;;;;;5117396;28;20456;-60
2023/09/12 11:22:44;;;;;;;8.43;7.40;;;27.50;99.90;;;;;;5117456;28;20541;-60
2023/09/12 11:25:19;;;;;;;8.07;7.33;;;27.30;99.90;;;;;;5117367;28;20893;-59
2023/09/12 11:28:03;;;;;;;7.50;6.80;;;27.30;1.00;;;;;;5116559;28;20455;-59
2023/09/12 11:30:31;;;;;;;7.10;6.50;;;26.90;1.00;;;;;;5119164;28;20455;-59
2023/09/12 11:33:00;;;;;;;6.80;6.30;;;27.40;1.00;;;;;;5118909;28;20746;-58
2023/09/12 11:35:29;;;;;;;8.70;7.90;;;27.80;1.00;;;;;;5116412;27;20739;-59
2023/09/12 11:37:59;;;;;;;8.43;7.53;;;28.00;1.00;;;;;;5126458;27;20450;-60
2023/09/12 11:40:41;;;;;;;7.87;7.17;;;28.30;1.00;;;;;;5119978;27;20495;-60
2023/09/12 11:43:19;;;;;;;9.00;7.00;;;28.20;1.00;;;;;;5114287;28;20594;-59
2023/09/12 11:45:47;;;;;;;8.90;6.83;;;28.40;1.00;;;;;;5115267;28;20892;-58
2023/09/12 11:48:17;;;;;;;12.20;8.60;;;28.80;1.00;;;;;;5115109;28;20911;-59
2023/09/12 11:50:50;;;;;;;8.07;7.47;;;29.20;1.00;;;;;;5115455;28;20904;-59
2023/09/12 11:53:22;;;;;;;9.20;7.83;;;29.60;1.00;;;;;;5116800;28;20483;-59
2023/09/12 11:55:51;;;;;;;9.00;8.07;;;29.90;1.00;;;;;;5116325;28;20753;-59
2023/09/12 11:58:20;;;;;;;10.10;8.00;;;29.80;99.90;;;;;;5117178;28;20888;-60
2023/09/12 12:00:49;;;;;;;9.73;8.57;;;29.30;99.90;;;;;;5117512;28;20459;-59
2023/09/12 12:03:19;;;;;;;10.80;9.00;;;28.10;99.90;;;;;;5117219;28;20965;-59
2023/09/12 12:05:47;;;;;;;9.90;8.23;;;27.70;1.00;;;;;;5129760;27;20474;-60
2023/09/12 12:08:16;;;;;;;10.13;9.13;;;28.00;1.00;;;;;;5137512;27;20461;-59
2023/09/12 12:10:43;;;;;;;10.60;9.70;;;28.30;1.00;;;;;;5137441;27;20454;-60
2023/09/12 12:13:12;;;;;;;11.93;9.00;;;28.30;1.00;;;;;;5137976;27;20461;-60
2023/09/12 12:15:40;;;;;;;9.50;8.70;;;28.70;99.90;;;;;;5138144;27;20459;-60
2023/09/12 12:18:07;;;;;;;9.80;9.00;;;29.00;1.00;;;;;;5138207;27;20455;-59
2023/09/12 12:20:36;;;;;;;10.73;9.83;;;29.50;99.90;;;;;;5138098;27;20461;-61
2023/09/12 12:23:04;;;;;;;11.40;8.60;;;28.40;99.90;;;;;;5135631;27;20490;-62
2023/09/12 12:25:35;;;;;;;9.03;8.27;;;28.80;99.90;;;;;;5116280;28;20738;-62
2023/09/12 12:28:03;;;;;;;9.73;8.93;;;29.20;99.90;;;;;;5118434;28;20538;-62
2023/09/12 12:30:32;;;;;;;9.47;8.60;;;29.10;99.90;;;;;;5118885;28;20458;-62
2023/09/12 12:33:02;;;;;;;10.30;9.47;;;28.60;99.90;;;;;;5119135;28;20451;-61
2023/09/12 12:35:30;;;;;;;10.80;9.87;;;26.70;99.90;;;;;;5117312;28;20451;-61
2023/09/12 12:37:58;;;;;;;8.77;8.07;;;26.60;1.00;;;;;;5118233;28;20459;-62
2023/09/12 12:40:26;;;;;;;10.20;9.30;;;27.40;1.00;;;;;;5118308;28;20478;-62
2023/09/12 12:42:53;;;;;;;9.27;8.37;;;28.00;1.00;;;;;;5118280;28;20497;-62
2023/09/12 12:45:23;;;;;;;8.37;7.77;;;27.60;1.00;;;;;;5118373;28;20455;-61
2023/09/12 12:47:53;;;;;;;9.00;8.20;;;26.90;1.00;;;;;;5118360;28;20892;-62
2023/09/12 12:50:21;;;;;;;10.07;8.80;;;26.90;1.00;;;;;;5118575;28;20498;-61
2023/09/12 12:52:49;;;;;;;9.07;8.27;;;27.30;1.00;;;;;;5117865;28;20760;-62